Cypremort Point, Louisiana
Current Conditions -  °F | °C
As of 9:55 PM on Saturday 20 Dec 2014 (Local Time) from KPTN Reporting Station
Overcast Overcast  
Wind Chill: 50°   Ceiling: 600
Heat Index: 50°   Visibility: 10mi
Dew Point: 46°   Wind: 12mph
Humidity: 87%   Direction: 40°NE
Pressure: 30.17"   Gusts: NA
Location:  29.6388°N, 91.5181°W
Report Text: KPTN 210355Z AUTO 04010KT 10SM OVC006 10/08 A3017 RMK AO1
Loading
Personal Weather Stations






























Interactive Weather Map New forecast layout! Learn more

10-Day Weather Forecast

Advertisements
Track Severe Weather on mobile